Time;durP1;ratioP1;P1;durP2;ratioP2;P2;SDS_P1;SDS_P2;PMS_P1;PMS_P2;Temp;Humidity;BMP_temperature;BMP_pressure;BME280_temperature;BME280_humidity;BME280_pressure;Samples;Min_cycle;Max_cycle;Signal;HPM_P1;HPM_P2
2023/09/30 00:02:36;;;;;;;7.60;3.57;;;16.20;1.00;;;;;;5024073;28;20494;-83
2023/09/30 00:08:39;;;;;;;11.17;3.53;;;16.00;1.00;;;;;;5018603;28;20384;-84
2023/09/30 00:11:19;;;;;;;3.97;3.47;;;15.90;1.00;;;;;;5007560;28;20441;-83
2023/09/30 00:14:24;;;;;;;22.43;3.80;;;15.80;1.00;;;;;;5013157;28;20424;-83
2023/09/30 00:17:30;;;;;;;4.77;3.17;;;15.70;1.00;;;;;;5015949;28;20403;-83
2023/09/30 00:23:31;;;;;;;5.20;3.00;;;15.60;1.00;;;;;;5010889;28;20430;-83
2023/09/30 00:29:18;;;;;;;23.50;5.40;;;15.50;1.00;;;;;;5023857;28;20551;-83
2023/09/30 00:31:44;;;;;;;12.20;3.77;;;15.40;1.00;;;;;;5011842;28;20451;-83
2023/09/30 00:34:25;;;;;;;12.83;3.80;;;15.30;1.00;;;;;;4996517;28;20201;-83
2023/09/30 00:40:54;;;;;;;8.03;3.53;;;15.30;1.00;;;;;;5018034;28;20409;-83
2023/09/30 00:44:01;;;;;;;10.33;3.80;;;15.30;1.00;;;;;;5029202;28;20412;-83
2023/09/30 00:46:33;;;;;;;11.07;3.43;;;15.20;1.00;;;;;;5031519;28;20395;-83
2023/09/30 00:49:14;;;;;;;7.43;3.10;;;15.20;1.00;;;;;;5016606;28;20399;-83
2023/09/30 00:52:24;;;;;;;16.80;4.90;;;15.20;1.00;;;;;;5026978;28;20402;-82
2023/09/30 00:54:51;;;;;;;7.50;2.80;;;15.10;1.00;;;;;;5039664;28;20473;-84
2023/09/30 00:57:25;;;;;;;6.60;3.20;;;15.10;1.00;;;;;;5013474;28;20425;-84
2023/09/30 01:00:02;;;;;;;6.10;2.77;;;15.10;1.00;;;;;;5000292;28;20486;-80
2023/09/30 01:03:06;;;;;;;14.80;3.80;;;15.10;1.00;;;;;;5010082;28;20424;-80
2023/09/30 01:05:54;;;;;;;7.03;3.13;;;15.20;1.00;;;;;;5027919;28;20448;-80
2023/09/30 01:08:37;;;;;;;5.33;3.17;;;15.20;1.00;;;;;;5009756;28;20460;-80
2023/09/30 01:11:26;;;;;;;6.90;2.70;;;15.20;1.00;;;;;;5020349;28;20407;-80
2023/09/30 01:14:40;;;;;;;5.67;2.90;;;15.10;1.00;;;;;;5014155;28;20419;-80
2023/09/30 01:17:25;;;;;;;10.63;2.90;;;15.10;1.00;;;;;;5021139;28;20400;-83
2023/09/30 01:19:58;;;;;;;16.93;3.67;;;15.10;1.00;;;;;;5009714;28;20391;-84
2023/09/30 01:22:49;;;;;;;6.03;3.13;;;15.00;1.00;;;;;;5017685;28;20403;-83
2023/09/30 01:28:37;;;;;;;5.10;2.90;;;15.00;1.00;;;;;;4998309;28;20461;-84
2023/09/30 01:31:39;;;;;;;4.27;2.80;;;15.00;1.00;;;;;;5012147;28;20494;-80
2023/09/30 01:34:54;;;;;;;11.57;3.70;;;15.00;1.00;;;;;;5003305;28;20256;-80
2023/09/30 01:38:07;;;;;;;7.13;3.00;;;15.00;1.00;;;;;;5012876;28;20415;-81
2023/09/30 01:41:06;;;;;;;10.77;3.70;;;15.00;1.00;;;;;;5011804;28;20414;-80
2023/09/30 01:43:37;;;;;;;4.70;3.00;;;15.00;1.00;;;;;;5015896;28;20427;-80
2023/09/30 01:46:19;;;;;;;3.60;2.90;;;15.00;1.00;;;;;;5017813;28;20435;-84
2023/09/30 01:49:07;;;;;;;4.37;2.70;;;15.00;1.00;;;;;;5022068;28;20876;-84
2023/09/30 01:51:32;;;;;;;7.43;3.80;;;15.00;1.00;;;;;;5018736;28;20443;-84
2023/09/30 02:01:24;;;;;;;9.13;3.40;;;15.10;1.00;;;;;;5009267;28;20387;-80
2023/09/30 02:04:07;;;;;;;6.87;3.40;;;15.10;1.00;;;;;;5016665;28;20403;-80
2023/09/30 02:10:07;;;;;;;8.57;3.80;;;15.00;1.00;;;;;;5014260;28;20382;-80
2023/09/30 02:12:33;;;;;;;8.00;3.40;;;14.90;1.00;;;;;;5017400;28;20449;-80
2023/09/30 02:18:37;;;;;;;10.20;3.30;;;14.90;1.00;;;;;;5014402;28;20223;-84
2023/09/30 02:21:13;;;;;;;9.70;4.00;;;;;;;;;;5016580;28;20849;-84
2023/09/30 02:27:07;;;;;;;10.33;3.30;;;14.80;1.00;;;;;;5013261;28;20410;-84
2023/09/30 02:30:07;;;;;;;6.53;3.33;;;14.80;1.00;;;;;;5015822;28;20403;-84
2023/09/30 02:36:13;;;;;;;11.80;3.60;;;14.70;1.00;;;;;;5002072;28;20426;-80
2023/09/30 02:39:26;;;;;;;7.50;3.60;;;14.70;1.00;;;;;;5020498;28;20402;-80
2023/09/30 02:48:49;;;;;;;10.67;3.10;;;14.70;1.00;;;;;;5017716;28;20402;-84
2023/09/30 02:51:31;;;;;;;8.93;3.77;;;14.70;1.00;;;;;;5013887;28;20440;-84
2023/09/30 02:53:57;;;;;;;11.53;3.90;;;14.80;1.00;;;;;;5016832;28;20431;-83
2023/09/30 02:56:31;;;;;;;8.33;3.20;;;14.70;1.00;;;;;;5012396;28;20744;-83
2023/09/30 02:59:01;;;;;;;7.27;2.93;;;14.70;1.00;;;;;;5008821;28;20185;-84
2023/09/30 03:02:00;;;;;;;13.43;3.20;;;14.70;1.00;;;;;;5032654;28;20423;-79
2023/09/30 03:04:43;;;;;;;8.33;3.50;;;14.80;1.00;;;;;;5029342;28;20455;-80
2023/09/30 03:07:38;;;;;;;11.70;3.13;;;14.80;1.00;;;;;;5031171;28;20993;-80
2023/09/30 03:10:24;;;;;;;8.43;3.03;;;14.80;1.00;;;;;;5015620;28;20418;-80
2023/09/30 03:13:42;;;;;;;5.90;3.53;;;14.80;1.00;;;;;;5019581;28;20430;-80
2023/09/30 03:16:30;;;;;;;9.40;3.50;;;14.90;1.00;;;;;;5018365;28;20462;-85
2023/09/30 03:19:06;;;;;;;13.13;3.73;;;14.90;1.00;;;;;;5015320;28;20435;-83
2023/09/30 03:25:24;;;;;;;9.80;3.37;;;14.80;1.00;;;;;;5018519;28;21053;-84
2023/09/30 03:27:56;;;;;;;8.37;3.43;;;14.70;1.00;;;;;;5019707;28;20424;-84
2023/09/30 03:30:37;;;;;;;5.23;3.27;;;14.70;1.00;;;;;;5030743;28;20433;-83
2023/09/30 03:33:13;;;;;;;6.10;3.00;;;14.50;1.00;;;;;;5034893;28;20913;-84
2023/09/30 03:42:54;;;;;;;5.80;3.10;;;14.30;1.00;;;;;;5015550;28;20416;-84
2023/09/30 03:45:25;;;;;;;13.27;3.30;;;14.20;1.00;;;;;;5020399;28;20464;-84
2023/09/30 03:47:51;;;;;;;338.50;75.00;;;14.20;1.00;;;;;;5017000;28;20424;-91
2023/09/30 03:50:17;;;;;;;10.47;4.03;;;14.20;1.00;;;;;;5020495;28;20435;-92
2023/09/30 03:56:05;;;;;;;7.30;3.40;;;14.20;1.00;;;;;;5016427;28;20244;-91
2023/09/30 03:58:44;;;;;;;10.03;3.50;;;14.20;1.00;;;;;;5015978;28;20538;-92
2023/09/30 04:01:39;;;;;;;13.73;3.47;;;14.10;1.00;;;;;;4996120;28;20402;-92
2023/09/30 04:07:48;;;;;;;10.83;3.60;;;14.10;1.00;;;;;;5015127;28;20809;-92
2023/09/30 04:14:07;;;;;;;8.67;3.43;;;14.00;1.00;;;;;;5000344;28;20427;-92
2023/09/30 04:26:41;;;;;;;6.93;2.60;;;13.90;1.00;;;;;;5015266;28;20394;-92
2023/09/30 04:29:49;;;;;;;11.03;3.90;;;13.80;1.00;;;;;;5022515;28;20460;-91
2023/09/30 04:32:19;;;;;;;5.20;3.20;;;13.80;1.00;;;;;;5017266;28;20427;-92
2023/09/30 04:34:55;;;;;;;9.30;3.97;;;13.80;1.00;;;;;;5030236;28;20400;-92
2023/09/30 04:37:38;;;;;;;6.80;3.07;;;13.70;1.00;;;;;;5003918;28;20426;-92
2023/09/30 04:40:22;;;;;;;12.57;3.77;;;13.60;1.00;;;;;;5010879;28;20402;-92
2023/09/30 04:42:49;;;;;;;7.30;3.83;;;13.60;1.00;;;;;;5017439;28;20518;-92
2023/09/30 04:45:26;;;;;;;15.80;4.10;;;13.50;1.00;;;;;;5013727;28;20992;-92
2023/09/30 04:48:02;;;;;;;10.33;3.53;;;13.50;1.00;;;;;;5016867;28;20398;-91
2023/09/30 04:54:21;;;;;;;7.80;3.67;;;13.50;1.00;;;;;;4994949;28;20936;-91
2023/09/30 05:00:25;;;;;;;7.97;3.77;;;13.30;1.00;;;;;;5014512;28;20512;-91
2023/09/30 05:02:56;;;;;;;6.40;3.50;;;13.20;1.00;;;;;;5011022;28;20459;-91
2023/09/30 05:05:25;;;;;;;8.03;3.70;;;13.20;1.00;;;;;;5010015;28;20427;-91
2023/09/30 05:07:55;;;;;;;8.10;3.10;;;13.20;1.00;;;;;;5010214;28;20417;-91
2023/09/30 05:10:25;;;;;;;14.43;4.00;;;13.20;1.00;;;;;;5010293;28;20421;-91
2023/09/30 05:12:55;;;;;;;13.80;3.90;;;13.10;1.00;;;;;;5011591;28;20554;-90
2023/09/30 05:16:00;;;;;;;5.00;3.33;;;13.10;1.00;;;;;;5013608;28;20439;-91
2023/09/30 05:18:38;;;;;;;10.93;3.70;;;13.00;1.00;;;;;;5026878;28;20435;-91
2023/09/30 05:24:56;;;;;;;7.03;3.50;;;13.00;1.00;;;;;;5009869;28;20454;-91
2023/09/30 05:27:48;;;;;;;8.80;4.00;;;13.00;1.00;;;;;;5031083;28;20450;-91
2023/09/30 05:37:01;;;;;;;6.30;3.23;;;13.00;1.00;;;;;;5033138;28;20424;-91
2023/09/30 05:42:49;;;;;;;10.80;4.13;;;12.90;1.00;;;;;;5009083;28;20354;-91
2023/09/30 05:49:13;;;;;;;21.97;3.83;;;12.80;1.00;;;;;;5027808;28;20411;-91
2023/09/30 05:52:19;;;;;;;11.63;4.13;;;12.70;1.00;;;;;;5017200;28;20428;-90
2023/09/30 05:58:15;;;;;;;12.20;3.97;;;12.70;1.00;;;;;;5004809;28;20439;-91
2023/09/30 06:10:47;;;;;;;9.50;4.20;;;12.70;1.00;;;;;;4998097;28;20471;-91
2023/09/30 06:13:33;;;;;;;10.60;4.40;;;12.60;1.00;;;;;;5003885;28;20455;-91
2023/09/30 06:16:26;;;;;;;8.63;4.30;;;12.60;1.00;;;;;;5016594;28;20532;-91
2023/09/30 06:18:55;;;;;;;6.97;4.80;;;12.60;1.00;;;;;;5016988;28;20428;-92
2023/09/30 06:21:39;;;;;;;7.93;3.73;;;12.60;1.00;;;;;;5019181;28;20442;-92
2023/09/30 06:24:07;;;;;;;11.23;4.03;;;12.70;1.00;;;;;;5012174;28;20779;-91
2023/09/30 06:26:37;;;;;;;7.57;4.53;;;12.70;1.00;;;;;;5014324;28;20448;-92
2023/09/30 06:29:31;;;;;;;7.77;3.90;;;12.80;1.00;;;;;;5014101;28;20973;-91
2023/09/30 06:32:48;;;;;;;6.13;3.13;;;12.80;1.00;;;;;;5027817;28;20440;-92
2023/09/30 06:35:19;;;;;;;12.80;4.30;;;12.90;1.00;;;;;;5036073;28;20426;-92
2023/09/30 06:37:49;;;;;;;13.27;4.27;;;12.90;1.00;;;;;;5035829;28;20403;-92
2023/09/30 06:40:25;;;;;;;12.90;4.90;;;;;;;;;;5014140;28;20428;-92
2023/09/30 06:43:08;;;;;;;6.53;4.00;;;13.00;1.00;;;;;;5025999;28;20869;-92
2023/09/30 06:45:33;;;;;;;12.73;4.40;;;13.10;1.00;;;;;;5029669;28;20491;-90
2023/09/30 06:48:12;;;;;;;6.13;4.23;;;13.10;1.00;;;;;;5035436;28;20961;-91
2023/09/30 06:54:00;;;;;;;7.27;3.90;;;;;;;;;;5015108;28;21690;-92
2023/09/30 06:57:18;;;;;;;7.03;4.10;;;13.30;1.00;;;;;;5012732;28;20986;-92
2023/09/30 07:03:09;;;;;;;12.90;4.23;;;13.40;1.00;;;;;;5018342;28;20438;-92
2023/09/30 07:08:56;;;;;;;11.13;4.63;;;13.60;1.00;;;;;;5017058;28;20400;-92
2023/09/30 07:14:44;;;;;;;9.33;4.60;;;13.80;1.00;;;;;;5017383;28;20191;-92
2023/09/30 07:18:00;;;;;;;8.57;4.57;;;13.90;1.00;;;;;;5016378;28;20518;-92
2023/09/30 07:20:26;;;;;;;7.60;4.30;;;14.00;1.00;;;;;;5016138;28;20177;-92
2023/09/30 07:23:09;;;;;;;11.47;5.10;;;14.10;1.00;;;;;;5018831;28;20498;-91
2023/09/30 07:25:34;;;;;;;22.77;6.87;;;14.30;1.00;;;;;;5033074;28;20224;-91
2023/09/30 07:28:37;;;;;;;12.60;5.90;;;14.40;1.00;;;;;;5028104;28;20818;-92
2023/09/30 07:31:25;;;;;;;7.77;4.43;;;14.50;1.00;;;;;;5030795;28;20173;-91
2023/09/30 07:34:07;;;;;;;11.43;5.47;;;14.70;1.00;;;;;;5014492;28;20395;-91
2023/09/30 07:36:43;;;;;;;16.63;6.37;;;14.80;1.00;;;;;;5023335;28;20459;-92
2023/09/30 07:39:09;;;;;;;11.37;5.50;;;15.00;1.00;;;;;;5031358;28;20438;-92
2023/09/30 07:45:03;;;;;;;20.87;7.57;;;15.20;1.00;;;;;;5004452;28;20267;-92
2023/09/30 07:47:46;;;;;;;29.33;7.90;;;15.40;1.00;;;;;;5010910;28;20486;-93
2023/09/30 07:50:31;;;;;;;27.60;7.93;;;15.50;1.00;;;;;;5013792;28;20532;-92
2023/09/30 07:53:25;;;;;;;16.60;6.33;;;15.60;1.00;;;;;;5014218;28;20445;-92
2023/09/30 07:55:51;;;;;;;18.87;6.90;;;15.70;1.00;;;;;;5014320;28;20418;-92
2023/09/30 07:59:14;;;;;;;18.43;6.37;;;15.80;1.00;;;;;;5030265;28;20916;-92
2023/09/30 08:01:40;;;;;;;17.13;6.00;;;15.90;1.00;;;;;;5012433;28;20208;-91
2023/09/30 08:04:07;;;;;;;13.40;5.10;;;16.00;1.00;;;;;;5013426;28;20413;-91
2023/09/30 08:09:54;;;;;;;12.60;4.83;;;16.30;1.00;;;;;;5017132;28;20420;-92
2023/09/30 08:12:57;;;;;;;9.97;4.90;;;16.30;1.00;;;;;;5032782;28;20859;-91
2023/09/30 08:18:55;;;;;;;16.03;5.37;;;16.50;1.00;;;;;;5017349;28;20790;-92
2023/09/30 08:21:21;;;;;;;11.00;4.87;;;16.70;1.00;;;;;;5032030;28;20409;-90
2023/09/30 08:23:46;;;;;;;13.10;4.50;;;16.70;1.00;;;;;;5015533;28;20746;-91
2023/09/30 08:30:04;;;;;;;12.80;4.90;;;16.80;1.00;;;;;;5008014;28;20702;-88
2023/09/30 08:35:55;;;;;;;15.13;5.10;;;17.00;1.00;;;;;;5015788;28;20373;-92
2023/09/30 08:39:13;;;;;;;11.00;5.53;;;17.10;1.00;;;;;;5028971;28;20463;-92
2023/09/30 08:42:01;;;;;;;16.33;5.73;;;17.20;1.00;;;;;;5014298;28;20401;-92
2023/09/30 08:48:05;;;;;;;16.27;6.00;;;17.20;1.00;;;;;;5013814;28;20433;-92
2023/09/30 08:50:32;;;;;;;10.60;5.00;;;17.20;1.00;;;;;;5012355;28;20780;-92
2023/09/30 08:53:16;;;;;;;10.37;5.03;;;17.20;1.00;;;;;;5013470;28;20405;-91
2023/09/30 08:55:56;;;;;;;15.27;4.93;;;17.10;1.00;;;;;;5025079;28;21039;-92
2023/09/30 08:59:13;;;;;;;9.27;5.50;;;17.20;1.00;;;;;;5012987;28;20609;-92
2023/09/30 09:01:39;;;;;;;16.70;6.10;;;17.30;1.00;;;;;;5011512;28;20417;-92
2023/09/30 09:04:07;;;;;;;13.20;5.00;;;17.40;1.00;;;;;;5012203;28;20998;-92
2023/09/30 09:07:00;;;;;;;13.33;6.17;;;17.60;1.00;;;;;;5015113;28;20421;-92
2023/09/30 09:16:25;;;;;;;9.10;4.90;;;18.00;1.00;;;;;;5014444;28;20443;-92
2023/09/30 09:18:55;;;;;;;11.30;4.90;;;18.20;1.00;;;;;;5013704;28;20510;-91
2023/09/30 09:21:56;;;;;;;12.57;5.00;;;18.30;1.00;;;;;;5013735;28;20525;-92
2023/09/30 09:28:07;;;;;;;8.57;4.50;;;18.60;1.00;;;;;;5015026;28;20488;-92
2023/09/30 09:37:24;;;;;;;11.80;4.03;;;19.30;1.00;;;;;;4995161;28;20421;-91
2023/09/30 09:40:37;;;;;;;12.60;5.27;;;19.50;1.00;;;;;;4994135;28;20909;-91
2023/09/30 09:43:16;;;;;;;9.60;4.10;;;19.70;1.00;;;;;;5016742;28;20457;-90
2023/09/30 09:45:44;;;;;;;7.77;4.23;;;19.80;1.00;;;;;;5032617;28;20460;-89
2023/09/30 09:48:13;;;;;;;12.17;4.93;;;19.90;1.00;;;;;;5015260;28;20418;-90
2023/09/30 09:54:21;;;;;;;7.33;3.70;;;19.80;1.00;;;;;;5033984;28;20978;-92
2023/09/30 09:56:50;;;;;;;11.43;4.00;;;20.00;1.00;;;;;;5033543;28;20511;-92
2023/09/30 09:59:32;;;;;;;9.50;4.10;;;20.00;1.00;;;;;;5032123;28;20934;-94
2023/09/30 10:02:15;;;;;;;11.67;4.30;;;19.90;1.00;;;;;;5013263;28;20414;-92
2023/09/30 10:08:42;;;;;;;8.13;4.00;;;19.80;1.00;;;;;;4995089;28;20452;-91
2023/09/30 10:11:48;;;;;;;11.20;4.20;;;19.60;1.00;;;;;;4993625;28;20412;-91
2023/09/30 10:15:06;;;;;;;7.87;4.07;;;19.40;1.00;;;;;;4993836;28;20415;-91
2023/09/30 10:18:25;;;;;;;14.53;4.13;;;19.20;1.00;;;;;;4993757;28;20420;-92
2023/09/30 10:25:16;;;;;;;6.60;3.27;;;19.00;1.00;;;;;;4998186;28;20452;-92
2023/09/30 10:35:18;;;;;;;6.03;3.30;;;19.00;1.00;;;;;;4997742;28;20455;-92
2023/09/30 10:38:21;;;;;;;9.03;3.13;;;19.30;1.00;;;;;;5017569;28;20458;-90
2023/09/30 10:40:52;;;;;;;5.87;2.80;;;19.50;1.00;;;;;;5019057;28;20982;-91
2023/09/30 10:50:50;;;;;;;6.70;2.73;;;19.60;1.00;;;;;;5021883;28;20408;-90
2023/09/30 10:53:27;;;;;;;7.70;3.37;;;19.90;1.00;;;;;;5016481;28;20421;-91
2023/09/30 10:56:32;;;;;;;5.77;3.43;;;20.10;1.00;;;;;;5021047;28;21047;-92
2023/09/30 10:59:43;;;;;;;9.67;3.40;;;20.30;1.00;;;;;;5015798;28;20426;-87
2023/09/30 11:05:30;;;;;;;7.60;2.40;;;20.60;1.00;;;;;;5035662;28;20472;-87
2023/09/30 11:08:22;;;;;;;7.37;2.57;;;20.40;1.00;;;;;;5022346;28;20804;-86
2023/09/30 11:10:50;;;;;;;3.70;2.40;;;20.50;1.00;;;;;;5015345;28;20595;-87
2023/09/30 11:16:57;;;;;;;5.63;2.83;;;20.50;1.00;;;;;;5016177;28;20397;-89
2023/09/30 11:22:46;;;;;;;4.70;2.73;;;20.60;1.00;;;;;;5016263;28;20500;-89
2023/09/30 11:32:28;;;;;;;4.00;2.60;;;20.60;1.00;;;;;;5015940;28;20410;-90
2023/09/30 11:34:54;;;;;;;6.40;3.27;;;20.70;1.00;;;;;;5021372;28;20587;-90
2023/09/30 11:37:44;;;;;;;6.03;2.80;;;20.60;1.00;;;;;;5021212;28;20950;-89
2023/09/30 11:40:23;;;;;;;5.07;2.60;;;20.50;1.00;;;;;;5017733;28;20439;-89
2023/09/30 11:43:14;;;;;;;3.93;2.40;;;20.60;1.00;;;;;;5024787;28;20443;-82
2023/09/30 11:45:49;;;;;;;5.37;2.43;;;20.80;1.00;;;;;;5030413;28;20855;-82
2023/09/30 11:48:20;;;;;;;6.23;2.00;;;20.80;1.00;;;;;;5017399;28;20435;-81
2023/09/30 11:51:31;;;;;;;3.07;1.60;;;21.00;1.00;;;;;;5026450;28;20430;-82
2023/09/30 11:57:37;;;;;;;2.60;1.60;;;21.10;1.00;;;;;;5014645;28;20431;-79
2023/09/30 12:00:37;;;;;;;4.43;1.93;;;21.20;1.00;;;;;;5014519;28;20928;-79
2023/09/30 12:03:31;;;;;;;5.17;2.27;;;21.40;1.00;;;;;;5013932;28;20476;-79
2023/09/30 12:06:13;;;;;;;4.10;2.27;;;21.50;1.00;;;;;;5010810;28;20457;-80
2023/09/30 12:12:19;;;;;;;6.27;2.00;;;21.40;1.00;;;;;;5027826;28;20385;-81
2023/09/30 12:14:45;;;;;;;3.03;2.03;;;21.20;1.00;;;;;;5013164;28;20532;-81
2023/09/30 12:17:49;;;;;;;3.10;1.80;;;21.30;1.00;;;;;;5021798;28;20498;-81
2023/09/30 12:20:37;;;;;;;3.23;1.73;;;21.30;1.00;;;;;;5014843;28;20675;-81
2023/09/30 12:23:05;;;;;;;2.47;1.83;;;21.60;1.00;;;;;;5029867;28;20430;-80
2023/09/30 12:25:37;;;;;;;4.63;2.30;;;21.60;1.00;;;;;;5025085;28;20513;-80
2023/09/30 12:28:54;;;;;;;5.57;2.57;;;21.60;1.00;;;;;;5027826;28;20408;-80
2023/09/30 12:31:25;;;;;;;4.40;2.30;;;21.60;1.00;;;;;;5000499;28;20518;-80
2023/09/30 12:33:55;;;;;;;5.90;2.07;;;21.80;1.00;;;;;;5014227;28;20556;-80
2023/09/30 12:39:49;;;;;;;5.73;2.13;;;21.90;1.00;;;;;;5014002;28;20973;-79
2023/09/30 12:43:01;;;;;;;8.80;2.27;;;22.00;1.00;;;;;;5018482;28;20915;-80
2023/09/30 12:45:49;;;;;;;5.87;2.57;;;22.10;1.00;;;;;;5011384;28;20450;-80
2023/09/30 12:48:19;;;;;;;2.50;1.90;;;22.20;1.00;;;;;;5011074;28;20467;-80
2023/09/30 12:51:08;;;;;;;7.40;2.20;;;22.20;1.00;;;;;;5013103;28;20912;-80
2023/09/30 12:53:55;;;;;;;3.50;2.20;;;22.10;1.00;;;;;;5032790;28;20439;-80
2023/09/30 12:56:25;;;;;;;4.97;2.03;;;22.00;1.00;;;;;;5033539;28;20991;-80
2023/09/30 12:59:07;;;;;;;4.23;2.20;;;22.00;1.00;;;;;;5014553;28;20437;-80
2023/09/30 13:01:55;;;;;;;4.07;2.10;;;22.10;1.00;;;;;;5013174;28;20487;-80
2023/09/30 13:08:19;;;;;;;4.83;2.00;;;22.30;1.00;;;;;;5019817;28;20457;-80
2023/09/30 13:14:27;;;;;;;2.40;1.67;;;22.40;1.00;;;;;;5019900;28;20412;-81
2023/09/30 13:17:07;;;;;;;4.50;2.13;;;22.30;1.00;;;;;;5024336;28;20433;-81
2023/09/30 13:20:12;;;;;;;2.53;1.50;;;22.50;1.00;;;;;;5019440;28;20520;-80
2023/09/30 13:22:43;;;;;;;2.30;1.43;;;22.70;1.00;;;;;;5027168;28;20420;-80
2023/09/30 13:25:31;;;;;;;4.50;1.83;;;22.80;1.00;;;;;;5019852;28;20956;-80
2023/09/30 13:28:27;;;;;;;3.80;1.50;;;22.90;1.00;;;;;;5031782;28;20397;-80
2023/09/30 13:31:07;;;;;;;2.80;1.67;;;23.00;1.00;;;;;;5020529;28;20927;-80
2023/09/30 13:33:55;;;;;;;3.07;1.70;;;22.90;1.00;;;;;;5032993;28;20402;-80
2023/09/30 13:36:37;;;;;;;4.40;1.77;;;22.70;1.00;;;;;;5032956;28;20404;-80
2023/09/30 13:39:05;;;;;;;2.60;1.40;;;22.50;1.00;;;;;;5009467;28;20406;-79
2023/09/30 13:41:35;;;;;;;2.40;1.70;;;22.50;1.00;;;;;;5010895;28;20458;-80
2023/09/30 13:44:19;;;;;;;2.03;1.63;;;22.30;1.00;;;;;;5025942;28;20421;-80
2023/09/30 13:47:08;;;;;;;2.20;1.20;;;22.20;1.00;;;;;;5021986;28;20422;-80
2023/09/30 13:49:55;;;;;;;1.60;1.40;;;22.30;1.00;;;;;;5001132;28;20428;-80
2023/09/30 13:52:43;;;;;;;2.53;1.50;;;22.40;1.00;;;;;;5023535;28;20405;-80
2023/09/30 13:55:18;;;;;;;2.47;1.37;;;22.50;1.00;;;;;;5033335;28;20396;-79
2023/09/30 14:01:37;;;;;;;1.80;1.70;;;22.40;1.00;;;;;;5018739;28;20396;-80
2023/09/30 14:04:25;;;;;;;6.63;1.73;;;22.40;1.00;;;;;;5024051;28;20412;-80
2023/09/30 14:07:13;;;;;;;1.80;1.40;;;22.40;1.00;;;;;;5020726;28;20440;-80
2023/09/30 14:09:49;;;;;;;1.97;1.60;;;22.50;1.00;;;;;;5016889;28;20409;-79
2023/09/30 14:12:15;;;;;;;6.20;1.40;;;22.50;1.00;;;;;;5028934;28;20404;-80
2023/09/30 14:14:41;;;;;;;4.43;1.53;;;22.40;1.00;;;;;;5015444;28;20919;-80
2023/09/30 14:17:14;;;;;;;5.60;1.70;;;22.30;1.00;;;;;;5029970;28;20223;-79
2023/09/30 14:19:40;;;;;;;4.37;1.90;;;22.50;1.00;;;;;;5028642;28;20234;-79
2023/09/30 14:22:08;;;;;;;2.83;1.83;;;22.50;1.00;;;;;;5029752;28;20440;-79
2023/09/30 14:24:37;;;;;;;3.37;1.60;;;22.60;1.00;;;;;;5025300;28;20432;-80
2023/09/30 14:27:15;;;;;;;2.40;1.40;;;22.70;1.00;;;;;;5020590;28;20430;-80
2023/09/30 14:39:49;;;;;;;1.90;1.63;;;22.80;1.00;;;;;;4997593;28;20453;-79
2023/09/30 14:42:15;;;;;;;4.13;1.33;;;22.70;1.00;;;;;;5021778;28;20523;-79
2023/09/30 14:48:14;;;;;;;3.13;1.93;;;22.90;1.00;;;;;;5022238;28;20545;-79
2023/09/30 14:54:25;;;;;;;6.90;2.23;;;23.00;1.00;;;;;;5012812;28;20928;-79
2023/09/30 14:57:37;;;;;;;11.53;2.07;;;23.10;1.00;;;;;;4996424;28;20879;-79
2023/09/30 15:00:13;;;;;;;4.83;2.03;;;23.20;1.00;;;;;;4996377;28;20402;-79
2023/09/30 15:02:50;;;;;;;5.67;2.17;;;23.30;1.00;;;;;;5023030;28;20431;-79
2023/09/30 15:05:25;;;;;;;3.40;1.70;;;23.20;1.00;;;;;;5016653;28;20452;-79
2023/09/30 15:07:55;;;;;;;3.23;1.90;;;23.20;1.00;;;;;;5014991;28;20747;-79
2023/09/30 15:10:43;;;;;;;7.93;2.13;;;23.40;1.00;;;;;;5015764;28;20790;-79
2023/09/30 15:13:31;;;;;;;3.87;2.20;;;23.40;1.00;;;;;;5015889;28;20415;-80
2023/09/30 15:19:25;;;;;;;5.67;2.50;;;23.00;1.00;;;;;;5015407;28;20432;-80
2023/09/30 15:25:14;;;;;;;5.67;2.00;;;22.80;1.00;;;;;;5006117;28;21031;-79
2023/09/30 15:27:43;;;;;;;4.13;2.17;;;22.70;1.00;;;;;;5015202;28;20413;-80
2023/09/30 15:30:13;;;;;;;4.13;2.07;;;22.70;1.00;;;;;;5014819;28;20786;-79
2023/09/30 15:32:55;;;;;;;5.13;2.40;;;22.60;1.00;;;;;;5024025;28;20414;-79
2023/09/30 15:38:43;;;;;;;6.10;2.00;;;22.40;1.00;;;;;;5034830;28;20404;-79
2023/09/30 15:41:14;;;;;;;4.57;1.93;;;22.30;1.00;;;;;;5015376;28;20435;-79
2023/09/30 15:43:40;;;;;;;5.37;1.80;;;22.20;1.00;;;;;;5028069;28;20415;-79
2023/09/30 15:46:25;;;;;;;6.37;2.50;;;22.00;1.00;;;;;;5033349;28;20443;-79
2023/09/30 15:49:12;;;;;;;7.00;2.63;;;21.90;1.00;;;;;;5010078;28;20241;-79
2023/09/30 15:51:55;;;;;;;5.37;2.27;;;21.70;1.00;;;;;;5014828;28;20937;-79
2023/09/30 15:54:43;;;;;;;4.73;2.17;;;21.50;1.00;;;;;;5013961;28;20932;-79
2023/09/30 15:57:13;;;;;;;3.53;2.33;;;21.30;1.00;;;;;;5014804;28;20435;-79
2023/09/30 15:59:49;;;;;;;8.33;2.53;;;21.20;1.00;;;;;;5014883;28;20826;-79
2023/09/30 16:02:31;;;;;;;6.57;2.70;;;21.10;1.00;;;;;;5014794;28;20410;-79
2023/09/30 16:05:14;;;;;;;8.33;2.33;;;20.90;1.00;;;;;;5014612;28;20525;-79
2023/09/30 16:07:44;;;;;;;4.47;2.17;;;20.70;1.00;;;;;;5017723;28;20893;-79
2023/09/30 16:10:13;;;;;;;6.40;2.57;;;20.60;1.00;;;;;;5028855;28;20428;-79
2023/09/30 16:12:43;;;;;;;5.17;2.43;;;20.40;1.00;;;;;;5031355;28;20430;-79
2023/09/30 16:15:19;;;;;;;4.10;2.50;;;20.20;1.00;;;;;;5023001;28;20392;-79
2023/09/30 16:17:45;;;;;;;7.70;2.13;;;20.10;1.00;;;;;;5018989;28;20482;-79
2023/09/30 16:20:31;;;;;;;5.70;2.37;;;19.90;1.00;;;;;;5016865;28;20928;-79
2023/09/30 16:23:08;;;;;;;3.87;2.37;;;19.80;1.00;;;;;;5022443;28;20173;-79
2023/09/30 16:25:37;;;;;;;7.60;2.57;;;19.60;1.00;;;;;;5016824;28;20467;-79
2023/09/30 16:28:07;;;;;;;5.30;2.70;;;19.60;1.00;;;;;;5013398;28;20934;-79
2023/09/30 16:30:33;;;;;;;4.10;2.40;;;19.40;1.00;;;;;;5019691;28;20964;-79
2023/09/30 16:33:07;;;;;;;13.23;3.00;;;19.20;1.00;;;;;;5028264;28;20439;-79
2023/09/30 16:35:51;;;;;;;4.33;2.23;;;19.10;1.00;;;;;;5033539;28;20424;-79
2023/09/30 16:38:20;;;;;;;6.90;2.60;;;18.90;1.00;;;;;;5020627;28;20420;-79
2023/09/30 16:40:56;;;;;;;3.37;2.10;;;18.80;1.00;;;;;;5026687;28;20412;-79
2023/09/30 16:43:25;;;;;;;7.00;2.40;;;18.60;1.00;;;;;;4999764;28;20478;-80
2023/09/30 16:46:00;;;;;;;6.97;2.97;;;18.50;1.00;;;;;;5025343;28;20451;-81
2023/09/30 16:48:25;;;;;;;6.90;2.73;;;18.30;1.00;;;;;;5017518;28;20427;-79
2023/09/30 16:50:51;;;;;;;4.10;2.63;;;18.20;1.00;;;;;;5024274;28;20441;-80
2023/09/30 16:53:20;;;;;;;2.60;2.03;;;18.00;1.00;;;;;;5013009;28;20240;-80
2023/09/30 16:55:50;;;;;;;10.60;2.60;;;17.80;1.00;;;;;;5024866;28;20248;-80
2023/09/30 16:58:25;;;;;;;6.70;3.40;;;17.70;1.00;;;;;;5027095;28;20426;-80
2023/09/30 17:01:12;;;;;;;5.13;2.50;;;17.50;1.00;;;;;;5017773;28;20510;-80
2023/09/30 17:03:41;;;;;;;6.40;2.77;;;17.30;1.00;;;;;;5012443;28;20439;-80
2023/09/30 17:06:13;;;;;;;11.27;3.00;;;17.20;1.00;;;;;;5033217;28;20446;-81
2023/09/30 17:08:43;;;;;;;4.90;3.37;;;17.10;1.00;;;;;;5033054;28;20722;-80
2023/09/30 17:11:28;;;;;;;7.10;2.57;;;16.90;1.00;;;;;;5032041;28;20936;-80
2023/09/30 17:17:27;;;;;;;7.03;2.80;;;16.60;1.00;;;;;;5033158;28;20932;-80
2023/09/30 17:20:44;;;;;;;16.50;3.20;;;16.40;1.00;;;;;;5021998;28;20441;-80
2023/09/30 17:23:37;;;;;;;7.47;2.50;;;16.30;1.00;;;;;;5030854;28;20795;-80
2023/09/30 17:26:14;;;;;;;9.10;2.90;;;16.10;1.00;;;;;;5024043;28;20449;-79
2023/09/30 17:28:43;;;;;;;6.13;2.70;;;16.00;1.00;;;;;;5012961;28;20436;-79
2023/09/30 17:32:03;;;;;;;7.60;3.43;;;15.80;1.00;;;;;;5008316;28;20923;-81
2023/09/30 17:34:37;;;;;;;9.50;3.30;;;15.80;1.00;;;;;;5025939;28;20489;-82
2023/09/30 17:37:07;;;;;;;7.93;3.00;;;15.70;1.00;;;;;;5012415;28;21000;-83
2023/09/30 17:40:13;;;;;;;5.17;2.93;;;15.60;1.00;;;;;;5020369;28;20394;-85
2023/09/30 17:42:43;;;;;;;7.23;3.50;;;15.50;1.00;;;;;;5005529;28;20408;-83
2023/09/30 17:45:14;;;;;;;9.80;4.10;;;15.50;1.00;;;;;;5011640;28;20507;-83
2023/09/30 17:47:40;;;;;;;9.53;3.83;;;15.40;1.00;;;;;;5013126;28;20434;-82
2023/09/30 17:50:13;;;;;;;7.23;3.63;;;15.30;1.00;;;;;;5012146;28;20441;-83
2023/09/30 17:52:43;;;;;;;13.87;4.10;;;15.30;1.00;;;;;;5032269;28;20810;-82
2023/09/30 17:55:14;;;;;;;6.47;3.57;;;15.20;1.00;;;;;;5014671;28;20415;-81
2023/09/30 17:57:43;;;;;;;13.80;3.60;;;15.20;1.00;;;;;;5011461;28;20445;-80
2023/09/30 18:00:14;;;;;;;8.20;3.97;;;15.10;1.00;;;;;;5016810;28;20758;-80
2023/09/30 18:02:43;;;;;;;11.73;5.00;;;15.00;1.00;;;;;;5012283;28;20487;-80
2023/09/30 18:05:43;;;;;;;8.20;4.63;;;15.00;1.00;;;;;;5011809;28;20435;-81
2023/09/30 18:08:26;;;;;;;8.00;4.47;;;14.90;1.00;;;;;;5022443;28;20404;-82
2023/09/30 18:10:56;;;;;;;10.03;4.70;;;14.90;1.00;;;;;;5032924;28;20401;-80
2023/09/30 18:13:26;;;;;;;15.27;4.77;;;14.80;1.00;;;;;;5011821;28;20493;-81
2023/09/30 18:15:56;;;;;;;7.17;4.33;;;14.70;1.00;;;;;;5026005;28;20906;-82
2023/09/30 18:18:25;;;;;;;11.60;4.50;;;14.70;1.00;;;;;;5021435;28;20448;-81
2023/09/30 18:24:13;;;;;;;15.03;5.13;;;14.60;1.00;;;;;;5011706;28;20458;-80
2023/09/30 18:26:43;;;;;;;7.00;4.20;;;14.60;1.00;;;;;;5011506;28;20522;-81
2023/09/30 18:29:13;;;;;;;10.77;4.67;;;14.60;1.00;;;;;;5017987;28;20181;-81